首页
METAR-TAF:

METAR-TAF

机场 :

莱克查尔斯, 路易斯安那州, 美国

纬度: 30-07-34N, 经度: 093-13-24W, 海拔: 5米

当前天气观测

该预报发布于9分钟前的05:21 UTC
风速9节,风向
温度 20°C
湿度 100%
气压 1011 hPa
能見度: 8.0公里
少量云层高于2200英尺
多云层高于3200英尺
阴天层高于6500英尺
小雨, 轻雾

METAR: KLCH 250521Z AUTO 35009KT 5SM -RA BR FEW022 BKN032 OVC065 20/20 A2986 RMK AO2 TSB0455E18 P0044 T02000200 $

时间: 00:30 (05:30 UTC)

预报

该预报发布于2小时和14分钟前的03:16 UTC
预报有效从25日的 03点(UTC)到 25日的 24点(UTC)
风速8节,风向西转西北
能見度: 10公里
少量云层高于3000英尺, 积雨云.
散云层高于6000英尺
多云层高于9000英尺
附近有雷暴
短暂存在
从 25日的 03点(UTC)到 25日的 05点(UTC)
多云层高于2500英尺, 积雨云.
从 25日的 0500点(UTC)
风速7节,风向南转南东
能見度: 10公里
散云层高于2500英尺
散云层高于9000英尺
短暂存在
从 25日的 10点(UTC)到 25日的 13点(UTC)
多云层高于2500英尺
从 25日的 1500点(UTC)
风速9节,风向东南
能見度: 10公里
多云层高于3500英尺, 积雨云.
附近有雷暴
从 25日的 2100点(UTC)
风速9节,风向南转南东
能見度: 10公里
多云层高于9000英尺, 积雨云.
小阵雨, 附近有雷暴

TAF: KLCH 250316Z 2503/2524 29008KT P6SM VCTS FEW030CB SCT060 BKN090 TEMPO 2503/2505 BKN025CB FM250500 16007KT P6SM SCT025 SCT090 TEMPO 2510/2513 BKN025 FM251500 14009KT P6SM VCTS BKN035CB FM252100 15009KT P6SM -SHRA VCTS BKN090CB

超过4000个机场的气象观测和天气预报(METAR&TAF报告)。

可查询的气象台以黄色和红色小点在地图上表示。

将鼠标移到小点上方,可查看气象台名称。

然后点击查看天气观测和预报。

如需切换地图:点击带黑十字的绿色按钮放大地图;点击带横线的绿色按钮缩小地图;或者点击绿色箭头查看邻近地区的地图。


METAR-TAF: